Flight Track Log - Related Links

Times and Time Zones

All times are in EST time to prevent confusion due to time zone crossing. See the SWA3625 flight status page for this flight to view local times or setup timezone preferences in your user account.

Time Position Orientation Groundspeed Altitude Reporting Facility
EST Latitude Longitude Course Direction KTS MPH feet Rate Location/Type
Fri 04:57:27 PM 29.5956 -95.2419 152° Southeast 187 215 2,400  Level Houston Center
Fri 04:57:51 PM 29.5708 -95.2272 153° Southeast 208 239 4,100 2,419 Climbing Houston Center
Fri 04:58:29 PM 29.5714 -95.1917 89° East 233 268 4,900 2,361 Climbing Houston Center
Fri 04:58:52 PM 29.5783 -95.1494 79° East 268 308 6,500 3,774 Climbing Houston Center
Fri 04:59:31 PM 29.5861 -95.0950 81° East 271 312 8,800 3,149 Climbing Houston Center
Fri 05:00:33 PM 29.6033 -95.0031 78° East 295 339 11,800 3,048 Climbing Houston Center
Fri 05:01:35 PM 29.6222 -94.8950 79° East 339 390 15,100 2,832 Climbing Houston Center
Fri 05:02:38 PM 29.6442 -94.7811 77° East 362 417 17,700 2,352 Climbing Houston Center
Fri 05:03:40 PM 29.6675 -94.6583 78° East 389 448 20,000 2,468 Climbing Houston Center
Fri 05:04:42 PM 29.6983 -94.4983 77° East 426 490 22,800 2,516 Climbing Houston Center
Fri 05:05:44 PM 29.7236 -94.3603 78° East 440 506 25,200 2,226 Climbing Houston Center
Fri 05:06:46 PM 29.7497 -94.2181 78° East 453 521 27,400 2,081 Climbing Houston Center
Fri 05:07:48 PM 29.7806 -94.0519 78° East 464 534 29,500 1,790 Climbing Houston Center
Fri 05:08:50 PM 29.8078 -93.9022 78° East 479 551 31,100 1,645 Climbing Houston Center
Fri 05:09:52 PM 29.8344 -93.7500 79° East 488 562 32,900 1,645 Climbing Houston Center
Fri 05:10:54 PM 29.8622 -93.5981 78° East 489 563 34,500 1,392 Climbing Houston Center
Fri 05:11:57 PM 29.8894 -93.4442 78° East 493 567 35,800 1,200 Climbing Houston Center
Fri 05:12:59 PM 29.9222 -93.2558 79° East 501 577 37,000 581 Climbing Houston Center
Fri 05:14:01 PM 29.9497 -93.1025 78° East 497 572 37,000  Level Houston Center
Fri 05:15:03 PM 29.9758 -92.9500 79° East 490 564 37,000 387 Level Houston Center
Fri 05:16:05 PM 30.0019 -92.7989 79° East 486 559 37,800 629 Climbing Houston Center
Fri 05:17:07 PM 30.0275 -92.6456 79° East 488 562 38,300 581 Climbing Houston Center
Fri 05:18:09 PM 30.0619 -92.4539 78° East 506 582 39,000 339 Climbing Houston Center
Fri 05:19:11 PM 30.0878 -92.2947 79° East 507 583 39,000  Level Houston Center
Fri 05:20:13 PM 30.1153 -92.1358 79° East 506 582 39,000  Level Houston Center
Fri 05:21:15 PM 30.1403 -91.9789 80° East 502 578 39,000  Level Houston Center
Fri 05:22:18 PM 30.1658 -91.8208 79° East 502 578 39,000 -432 Level Houston Center
Fri 05:23:20 PM 30.1936 -91.6519 79° East 507 583 38,100 -871 Descending Houston Center
Fri 05:24:22 PM 30.2214 -91.4933 79° East 505 581 37,200 -1,016 Descending Houston Center
Fri 05:25:24 PM 30.2500 -91.3047 80° East 498 573 36,000 -1,008 Descending Houston Center
Fri 05:26:27 PM 30.2761 -91.1453 79° East 502 578 35,100 -919 Descending Houston Center
Fri 05:27:28 PM 30.3008 -90.9833 80° East 512 589 34,100 -976 Descending Houston Center
Fri 05:28:30 PM 30.3264 -90.8244 79° East 506 582 33,100 -532 Descending Houston Center
Fri 05:29:32 PM 30.3517 -90.6669 79° East 498 573 33,000 -48 Descending Houston Center
Fri 05:30:34 PM 30.3750 -90.5103 80° East 495 570 33,000 -242 Level Houston Center
Fri 05:31:36 PM 30.4047 -90.3206 80° East 500 575 32,500 -672 Descending Houston Center
Fri 05:32:39 PM 30.4158 -90.1628 85° East 493 567 31,600 -912 Descending Houston Center
Fri 05:33:41 PM 30.4147 -90.0061 90° East 487 560 30,600 -968 Descending Houston Center
Fri 05:34:43 PM 30.4156 -89.8486 90° East 483 556 29,600 -1,016 Descending Houston Center
Fri 05:35:45 PM 30.4164 -89.6864 90° East 480 552 28,500 -1,016 Descending Houston Center
Fri 05:36:47 PM 30.4150 -89.5358 91° East 469 540 27,500 -968 Descending Houston Center
Fri 05:37:49 PM 30.4142 -89.3911 90° East 454 522 26,500 -1,016 Descending Houston Center
Fri 05:38:51 PM 30.4136 -89.2486 90° East 447 514 25,400 -1,113 Descending Houston Center
Fri 05:39:53 PM 30.4125 -89.0792 90° East 438 504 24,200 -1,065 Descending Houston Center
Fri 05:40:55 PM 30.4114 -88.9442 91° East 424 488 23,200 -960 Descending Houston Center
Fri 05:41:58 PM 30.4103 -88.8014 90° East 420 483 22,200 -960 Descending Houston Center
Fri 05:43:00 PM 30.4092 -88.6717 91° East 406 467 21,200 -968 Descending Houston Center
Fri 05:44:02 PM 30.4078 -88.5458 91° East 394 453 20,200 -968 Descending Houston Center
Fri 05:45:04 PM 30.4067 -88.4206 91° East 392 451 19,200 -1,161 Descending Houston Center
Fri 05:46:06 PM 30.4039 -88.2961 91° East 388 447 17,800 -1,984 Descending Houston Center
Fri 05:47:08 PM 30.4039 -88.1508 90° East 379 436 15,100 -2,274 Descending Houston Center
Fri 05:48:10 PM 30.4006 -88.0314 92° East 372 428 13,100 -1,887 Descending Houston Center
Fri 05:49:12 PM 30.4000 -87.9156 90° East 361 415 11,200 -1,440 Descending Houston Center
Fri 05:50:15 PM 30.3850 -87.8108 99° East 327 376 10,100 -528 Descending Houston Center
Fri 05:51:17 PM 30.3572 -87.7094 108° East 329 379 10,100 -242 Level Houston Center
Fri 05:52:19 PM 30.3275 -87.6039 108° East 289 333 9,600 -941 Descending Houston Center
Fri 05:52:59 PM 30.3089 -87.5481 111° Southeast 290 334 8,500 -1,366 Descending Jacksonville Center
Fri 05:54:00 PM 30.3100 -87.4589 89° East 284 327 7,300 -1,328 Descending Jacksonville Center
Fri 05:55:01 PM 30.3153 -87.3656 86° East 276 318 5,800 -1,339 Descending Jacksonville Center
Fri 05:56:01 PM 30.3186 -87.2742 88° East 267 307 4,600 -1,388 Descending Jacksonville Center
Fri 05:57:02 PM 30.3253 -87.1975 84° East 224 258 3,000 -1,172 Descending Jacksonville Center
Fri 05:58:09 PM 30.3600 -87.1631 41° Northeast 181 208 2,100 -850 Descending Jacksonville Center
Fri 05:59:09 PM 30.4075 -87.1747 348° North 154 177 1,200 -803 Descending Jacksonville Center
Fri 06:00:16 PM 30.4425 -87.1858 345° North 115 132 400 -716 Descending Jacksonville Center

Login

Don't have an account? Register now (free) for customized features, flight alerts, and more!